Time;durP1;ratioP1;P1;durP2;ratioP2;P2;SDS_P1;SDS_P2;PMS_P1;PMS_P2;Temp;Humidity;BMP_temperature;BMP_pressure;BME280_temperature;BME280_humidity;BME280_pressure;Samples;Min_cycle;Max_cycle;Signal;HPM_P1;HPM_P2
2022/12/18 00:04:43;;;;;;;1.33;1.23;;;;;;;;;;20874434;28;20229;-63
2022/12/18 00:14:45;;;;;;;1.67;1.10;;;;;;;;;;20906354;28;20233;-63
2022/12/18 00:24:47;;;;;;;1.43;1.33;;;;;;;;;;20851650;28;20230;-63
2022/12/18 00:34:49;;;;;;;1.53;1.43;;;;;;;;;;20856232;28;20226;-63
2022/12/18 00:44:50;;;;;;;2.83;1.50;;;;;;;;;;20888473;28;20202;-63
2022/12/18 00:54:53;;;;;;;1.23;1.13;;;;;;;;;;20870687;28;20229;-62
2022/12/18 01:04:55;;;;;;;1.23;1.13;;;;;;;;;;20902863;28;20252;-63
2022/12/18 01:14:57;;;;;;;0.90;0.90;;;;;;;;;;20853582;28;20248;-63
2022/12/18 01:24:59;;;;;;;2.13;1.30;;;;;;;;;;20885812;28;20288;-63
2022/12/18 01:35:01;;;;;;;0.87;0.80;;;;;;;;;;20849640;28;20226;-63
2022/12/18 01:45:03;;;;;;;3.33;2.73;;;;;;;;;;20863547;28;20548;-63
2022/12/18 01:55:08;;;;;;;1.67;0.70;;;-5.30;99.90;;;;;;20859482;28;20290;-63
2022/12/18 02:05:11;;;;;;;1.23;1.13;;;-5.40;99.90;;;;;;20786098;28;20241;-63
2022/12/18 02:15:52;;;;;;;1.37;1.23;;;-5.40;99.90;;;;;;20791576;28;20223;-63
2022/12/18 02:26:10;;;;;;;1.10;1.03;;;;;;;;;;20782129;28;20230;-63
2022/12/18 02:36:14;;;;;;;2.80;2.00;;;-5.30;99.90;;;;;;20816414;28;20219;-63
2022/12/18 02:46:26;;;;;;;1.97;1.53;;;;;;;;;;20805469;28;20765;-63
2022/12/18 02:56:31;;;;;;;4.77;1.77;;;;;;;;;;20897056;28;20286;-63
2022/12/18 03:06:40;;;;;;;0.87;0.70;;;;;;;;;;20863637;28;20263;-63
2022/12/18 03:16:44;;;;;;;0.47;0.47;;;;;;;;;;20701324;22;20564;-67
2022/12/18 03:26:50;;;;;;;1.47;1.37;;;-5.50;99.90;;;;;;20601587;28;20208;-66
2022/12/18 03:36:53;;;;;;;1.73;1.10;;;;;;;;;;20587279;28;20228;-68
2022/12/18 03:46:58;;;;;;;2.23;1.77;;;;;;;;;;20584883;28;20204;-67
2022/12/18 03:57:10;;;;;;;1.70;1.37;;;-5.50;99.90;;;;;;20593170;28;20787;-67
2022/12/18 04:07:14;;;;;;;0.50;0.43;;;-5.60;99.90;;;;;;20582341;28;20216;-67
2022/12/18 04:17:19;;;;;;;3.67;1.50;;;;;;;;;;20569381;28;20233;-67
2022/12/18 04:27:22;;;;;;;0.80;0.80;;;;;;;;;;20580190;28;20221;-68
2022/12/18 04:37:26;;;;;;;1.50;1.40;;;;;;;;;;20580585;28;20217;-68
2022/12/18 04:47:27;;;;;;;1.57;1.47;;;;;;;;;;20579794;28;20236;-66
2022/12/18 04:57:29;;;;;;;3.07;2.20;;;;;;;;;;20580329;28;20607;-68
2022/12/18 05:07:31;;;;;;;1.57;1.47;;;;;;;;;;20579507;28;20630;-67
2022/12/18 05:17:32;;;;;;;0.93;0.83;;;;;;;;;;20578293;28;20240;-68
2022/12/18 05:27:34;;;;;;;1.83;1.60;;;;;;;;;;20579611;28;20240;-67
2022/12/18 05:37:36;;;;;;;1.47;0.83;;;-5.60;99.90;;;;;;20577554;28;20224;-67
2022/12/18 05:47:38;;;;;;;2.50;1.53;;;;;;;;;;20580693;28;20398;-66
2022/12/18 05:57:39;;;;;;;1.30;1.20;;;;;;;;;;20594658;28;20240;-72
2022/12/18 06:07:41;;;;;;;1.40;1.30;;;;;;;;;;20593124;28;20684;-66
2022/12/18 06:17:43;;;;;;;1.87;1.70;;;;;;;;;;20589122;28;20220;-66
2022/12/18 06:27:44;;;;;;;2.37;2.17;;;;;;;;;;20588085;28;20633;-67
2022/12/18 06:37:46;;;;;;;0.70;0.70;;;;;;;;;;20570421;28;20232;-66
2022/12/18 06:47:48;;;;;;;2.00;1.53;;;;;;;;;;20588462;28;20228;-67
2022/12/18 06:57:50;;;;;;;2.53;1.67;;;;;;;;;;20585217;28;20279;-70
2022/12/18 07:07:52;;;;;;;1.23;1.13;;;;;;;;;;20584909;28;20220;-66
2022/12/18 07:17:54;;;;;;;1.30;1.20;;;;;;;;;;20582812;28;20279;-67
2022/12/18 07:27:56;;;;;;;1.57;1.50;;;;;;;;;;20595409;28;20293;-67
2022/12/18 07:37:57;;;;;;;4.37;2.57;;;;;;;;;;20594146;28;20252;-69
2022/12/18 07:47:59;;;;;;;2.77;1.77;;;;;;;;;;20582124;28;20598;-66
2022/12/18 07:58:03;;;;;;;1.57;1.47;;;-5.70;99.90;;;;;;20580493;28;20236;-66
2022/12/18 08:08:05;;;;;;;1.57;1.30;;;;;;;;;;20574148;28;20779;-65
2022/12/18 08:18:07;;;;;;;2.17;1.73;;;;;;;;;;20569234;28;20249;-70
2022/12/18 08:28:08;;;;;;;1.43;1.33;;;;;;;;;;20571315;28;20620;-69
2022/12/18 08:38:10;;;;;;;1.23;1.13;;;;;;;;;;20578284;28;20640;-67
2022/12/18 08:48:12;;;;;;;2.60;2.40;;;;;;;;;;20569952;28;20208;-68
2022/12/18 08:58:13;;;;;;;2.63;1.33;;;;;;;;;;20576626;28;20279;-68
2022/12/18 09:08:15;;;;;;;1.93;1.53;;;;;;;;;;20576261;28;20212;-68
2022/12/18 09:18:18;;;;;;;2.00;1.90;;;;;;;;;;20576231;28;20220;-69
2022/12/18 09:28:20;;;;;;;1.00;0.90;;;;;;;;;;20571849;28;20212;-68
2022/12/18 09:38:23;;;;;;;2.27;2.07;;;;;;;;;;20580065;28;20240;-68
2022/12/18 09:48:31;;;;;;;0.60;0.60;;;;;;;;;;20576258;28;20228;-68
2022/12/18 09:58:44;;;;;;;0.97;0.93;;;-5.10;99.90;;;;;;20575768;28;20208;-69
2022/12/18 10:08:49;;;;;;;2.83;1.73;;;;;;;;;;20652135;23;20228;-69
2022/12/18 10:19:18;;;;;;;0.47;0.47;;;-5.00;99.90;;;;;;20596846;28;20295;-69
2022/12/18 10:29:20;;;;;;;1.33;1.20;;;;;;;;;;20591928;28;20258;-65
2022/12/18 10:39:23;;;;;;;0.63;0.63;;;;;;;;;;20594257;28;20275;-65
2022/12/18 10:49:24;;;;;;;1.80;1.63;;;;;;;;;;20596974;28;20216;-65
2022/12/18 10:59:26;;;;;;;1.13;1.03;;;;;;;;;;20589753;28;20278;-66
2022/12/18 11:09:31;;;;;;;1.53;1.33;;;-4.70;99.90;;;;;;20611782;28;20224;-65
2022/12/18 11:19:35;;;;;;;1.27;1.17;;;;;;;;;;20602437;28;20228;-65
2022/12/18 11:29:38;;;;;;;1.67;1.53;;;;;;;;;;20583153;28;20228;-66
2022/12/18 11:39:49;;;;;;;1.70;1.60;;;-4.40;99.90;;;;;;20581509;28;20271;-65
2022/12/18 11:49:51;;;;;;;1.70;1.40;;;-4.40;99.90;;;;;;20581666;28;20233;-65
2022/12/18 12:00:01;;;;;;;1.57;1.47;;;-4.40;99.90;;;;;;20581036;28;20255;-66
2022/12/18 12:10:03;;;;;;;1.67;1.57;;;;;;;;;;20579227;28;20271;-66
2022/12/18 12:20:37;;;;;;;1.97;1.70;;;;;;;;;;20580478;28;20526;-67
2022/12/18 12:30:45;;;;;;;3.20;2.37;;;;;;;;;;20578275;28;20197;-66
2022/12/18 12:40:52;;;;;;;2.77;2.07;;;;;;;;;;20581812;28;20299;-67
2022/12/18 12:50:54;;;;;;;2.07;1.87;;;;;;;;;;20588693;28;20275;-66
2022/12/18 13:01:01;;;;;;;1.73;1.57;;;;;;;;;;20590645;28;20302;-65
2022/12/18 13:21:31;;;;;;;1.93;1.80;;;;;;;;;;20580970;28;20290;-66
2022/12/18 13:31:41;;;;;;;1.57;1.17;;;-3.80;99.90;;;;;;20573291;28;20554;-66
2022/12/18 13:41:45;;;;;;;2.10;1.83;;;-3.80;99.90;;;;;;20573967;28;20228;-66
2022/12/18 13:51:53;;;;;;;3.30;2.53;;;-3.80;99.90;;;;;;20572286;28;20201;-66
2022/12/18 14:01:56;;;;;;;1.73;1.63;;;;;;;;;;20573899;28;20216;-66
2022/12/18 14:22:20;;;;;;;2.47;2.20;;;;;;;;;;20602056;28;20263;-68
2022/12/18 14:32:22;;;;;;;4.33;2.17;;;;;;;;;;20601447;28;20231;-66
2022/12/18 14:42:27;;;;;;;1.57;1.17;;;;;;;;;;20599950;28;20652;-67
2022/12/18 14:52:31;;;;;;;2.47;2.27;;;-4.20;99.90;;;;;;20565010;28;20675;-68
2022/12/18 15:02:36;;;;;;;1.53;1.30;;;;;;;;;;20535422;28;20571;-66
2022/12/18 15:12:50;;;;;;;2.23;1.93;;;-4.40;99.90;;;;;;20607275;28;20243;-65
2022/12/18 15:22:52;;;;;;;1.83;1.57;;;;;;;;;;20578403;28;20232;-65
2022/12/18 15:33:22;;;;;;;1.97;1.77;;;-4.40;99.90;;;;;;20570677;28;20643;-66
2022/12/18 15:43:34;;;;;;;2.07;1.77;;;;;;;;;;20499705;28;20237;-65
2022/12/18 15:53:36;;;;;;;2.23;2.07;;;;;;;;;;20609500;28;20513;-66
2022/12/18 16:03:38;;;;;;;2.07;1.90;;;;;;;;;;20612345;28;20224;-66
2022/12/18 16:13:41;;;;;;;1.53;1.33;;;;;;;;;;20640133;23;20695;-70
2022/12/18 16:23:43;;;;;;;1.57;1.13;;;;;;;;;;20654859;28;20262;-70
2022/12/18 16:33:44;;;;;;;3.13;2.20;;;;;;;;;;20656978;28;20203;-70
2022/12/18 16:43:46;;;;;;;2.33;1.80;;;;;;;;;;20656347;28;20629;-70
2022/12/18 16:53:48;;;;;;;1.50;1.40;;;;;;;;;;20651526;28;20250;-70
2022/12/18 17:04:04;;;;;;;1.23;1.13;;;-4.30;99.90;;;;;;20652711;28;20309;-70
2022/12/18 17:14:11;;;;;;;1.67;1.30;;;;;;;;;;20650497;28;20245;-69
2022/12/18 17:24:12;;;;;;;1.93;1.70;;;;;;;;;;20646878;28;20295;-70
2022/12/18 17:34:15;;;;;;;1.93;1.73;;;;;;;;;;20650896;28;20235;-69
2022/12/18 17:44:17;;;;;;;1.30;1.20;;;-4.20;99.90;;;;;;20653548;28;20892;-69
2022/12/18 17:54:20;;;;;;;1.53;1.43;;;;;;;;;;20670281;28;20318;-71
2022/12/18 18:04:21;;;;;;;1.57;1.43;;;;;;;;;;20672005;28;20216;-67
2022/12/18 18:14:23;;;;;;;1.80;1.70;;;;;;;;;;20670583;28;20270;-68
2022/12/18 18:24:25;;;;;;;1.87;1.60;;;;;;;;;;20665745;28;20216;-68
2022/12/18 18:34:29;;;;;;;2.47;1.80;;;-4.10;99.90;;;;;;20667803;28;20208;-67
2022/12/18 18:44:31;;;;;;;2.60;2.30;;;;;;;;;;20649611;28;20236;-68
2022/12/18 18:54:33;;;;;;;3.13;1.77;;;;;;;;;;20662192;28;20246;-67
2022/12/18 19:04:35;;;;;;;1.30;1.10;;;;;;;;;;20743692;28;20293;-67
2022/12/18 19:14:37;;;;;;;1.33;1.23;;;;;;;;;;20742041;28;20277;-67
2022/12/18 19:24:39;;;;;;;0.70;0.60;;;;;;;;;;20742309;28;20560;-67
2022/12/18 19:34:41;;;;;;;2.13;1.93;;;;;;;;;;20662683;28;20432;-67
2022/12/18 19:44:46;;;;;;;1.77;1.63;;;;;;;;;;20659399;28;20282;-67
2022/12/18 19:54:47;;;;;;;2.80;1.90;;;;;;;;;;20659941;28;20216;-67
2022/12/18 20:04:49;;;;;;;2.90;2.43;;;;;;;;;;20659691;28;20224;-67
2022/12/18 20:14:51;;;;;;;1.80;1.70;;;;;;;;;;20658494;28;20714;-67
2022/12/18 20:24:52;;;;;;;2.07;1.87;;;;;;;;;;20657087;28;20219;-67
2022/12/18 20:34:54;;;;;;;1.63;1.50;;;;;;;;;;20659376;28;20216;-67
2022/12/18 20:44:56;;;;;;;2.97;2.23;;;;;;;;;;20649774;28;20283;-67
2022/12/18 20:54:57;;;;;;;1.97;1.77;;;;;;;;;;20653278;28;20212;-67
2022/12/18 21:05:00;;;;;;;1.43;1.20;;;;;;;;;;20656401;28;20216;-67
2022/12/18 21:15:02;;;;;;;5.10;2.10;;;;;;;;;;20655403;28;20223;-67
2022/12/18 21:25:06;;;;;;;2.57;2.37;;;;;;;;;;20654737;28;20228;-67
2022/12/18 21:35:09;;;;;;;2.87;2.57;;;;;;;;;;20647904;28;20219;-67
2022/12/18 21:45:11;;;;;;;2.47;1.83;;;;;;;;;;20654287;28;20235;-66
2022/12/18 21:55:13;;;;;;;1.17;1.07;;;;;;;;;;20655011;28;20224;-67
2022/12/18 22:05:14;;;;;;;2.03;1.50;;;;;;;;;;20656042;28;20247;-66
2022/12/18 22:15:16;;;;;;;2.83;2.03;;;;;;;;;;20652089;28;20641;-67
2022/12/18 22:25:18;;;;;;;2.40;1.93;;;;;;;;;;20653952;28;20220;-66
2022/12/18 22:35:20;;;;;;;1.80;1.60;;;;;;;;;;20634405;23;20291;-63
2022/12/18 22:45:22;;;;;;;1.83;1.67;;;;;;;;;;20597918;28;20240;-64
2022/12/18 22:55:24;;;;;;;0.67;0.67;;;;;;;;;;20556421;28;20213;-63
2022/12/18 23:05:27;;;;;;;2.23;1.53;;;-3.30;99.90;;;;;;20555097;28;20228;-63
2022/12/18 23:15:29;;;;;;;1.50;1.40;;;;;;;;;;20554894;28;20271;-64
2022/12/18 23:25:31;;;;;;;1.87;1.67;;;;;;;;;;20554202;28;20302;-63
2022/12/18 23:35:33;;;;;;;1.03;0.83;;;;;;;;;;20537558;28;20224;-63
2022/12/18 23:45:37;;;;;;;3.27;2.23;;;;;;;;;;20536641;28;20649;-64
2022/12/18 23:55:42;;;;;;;1.60;1.50;;;;;;;;;;20543001;28;20216;-64
